sensor_id;sensor_type;location;lat;lon;timestamp;temperature;humidity
64062;DHT22;50308;47.438;-1.528;2023-04-10T00:02:09;13.10;78.80
64062;DHT22;50308;47.438;-1.528;2023-04-10T00:04:35;13.00;78.10
64062;DHT22;50308;47.438;-1.528;2023-04-10T00:07:00;13.10;78.20
64062;DHT22;50308;47.438;-1.528;2023-04-10T00:09:26;13.10;78.40
64062;DHT22;50308;47.438;-1.528;2023-04-10T00:11:53;13.20;78.70
64062;DHT22;50308;47.438;-1.528;2023-04-10T00:14:19;13.20;78.90
64062;DHT22;50308;47.438;-1.528;2023-04-10T00:16:48;13.30;78.50
64062;DHT22;50308;47.438;-1.528;2023-04-10T00:19:14;13.20;78.50
64062;DHT22;50308;47.438;-1.528;2023-04-10T00:21:39;13.30;78.60
64062;DHT22;50308;47.438;-1.528;2023-04-10T00:24:05;13.30;78.40
64062;DHT22;50308;47.438;-1.528;2023-04-10T00:26:31;13.30;78.50
64062;DHT22;50308;47.438;-1.528;2023-04-10T00:28:57;13.30;79.20
64062;DHT22;50308;47.438;-1.528;2023-04-10T00:31:22;13.30;79.50
64062;DHT22;50308;47.438;-1.528;2023-04-10T00:33:48;13.30;79.40
64062;DHT22;50308;47.438;-1.528;2023-04-10T00:36:14;13.20;79.70
64062;DHT22;50308;47.438;-1.528;2023-04-10T00:38:40;13.20;79.70
64062;DHT22;50308;47.438;-1.528;2023-04-10T00:41:06;13.20;79.70
64062;DHT22;50308;47.438;-1.528;2023-04-10T00:43:32;13.10;79.80
64062;DHT22;50308;47.438;-1.528;2023-04-10T00:45:58;13.20;79.80
64062;DHT22;50308;47.438;-1.528;2023-04-10T00:48:24;13.30;79.60
64062;DHT22;50308;47.438;-1.528;2023-04-10T00:50:50;13.30;79.90
64062;DHT22;50308;47.438;-1.528;2023-04-10T00:53:16;13.30;80.00
64062;DHT22;50308;47.438;-1.528;2023-04-10T00:55:43;13.30;80.20
64062;DHT22;50308;47.438;-1.528;2023-04-10T00:58:08;13.30;80.00
64062;DHT22;50308;47.438;-1.528;2023-04-10T01:00:39;13.40;79.80
64062;DHT22;50308;47.438;-1.528;2023-04-10T01:03:09;13.40;79.70
64062;DHT22;50308;47.438;-1.528;2023-04-10T01:05:42;13.40;79.60
64062;DHT22;50308;47.438;-1.528;2023-04-10T01:16:18;13.40;80.40
64062;DHT22;50308;47.438;-1.528;2023-04-10T01:18:53;13.40;80.30
64062;DHT22;50308;47.438;-1.528;2023-04-10T01:21:22;13.40;80.60
64062;DHT22;50308;47.438;-1.528;2023-04-10T01:29:35;13.40;80.50
64062;DHT22;50308;47.438;-1.528;2023-04-10T01:32:10;13.30;80.60
64062;DHT22;50308;47.438;-1.528;2023-04-10T01:34:48;13.40;80.80
64062;DHT22;50308;47.438;-1.528;2023-04-10T01:37:23;13.40;80.30
64062;DHT22;50308;47.438;-1.528;2023-04-10T01:39:58;13.40;80.50
64062;DHT22;50308;47.438;-1.528;2023-04-10T01:42:27;13.40;80.60
64062;DHT22;50308;47.438;-1.528;2023-04-10T01:44:56;13.40;80.60
64062;DHT22;50308;47.438;-1.528;2023-04-10T01:47:24;13.40;80.30
64062;DHT22;50308;47.438;-1.528;2023-04-10T01:49:50;13.40;80.60
64062;DHT22;50308;47.438;-1.528;2023-04-10T01:52:18;13.40;80.30
64062;DHT22;50308;47.438;-1.528;2023-04-10T01:54:46;13.40;80.80
64062;DHT22;50308;47.438;-1.528;2023-04-10T01:57:14;13.40;80.40
64062;DHT22;50308;47.438;-1.528;2023-04-10T01:59:40;13.40;80.80
64062;DHT22;50308;47.438;-1.528;2023-04-10T02:02:06;13.30;80.80
64062;DHT22;50308;47.438;-1.528;2023-04-10T02:04:32;13.30;80.90
64062;DHT22;50308;47.438;-1.528;2023-04-10T02:07:37;13.30;81.10
64062;DHT22;50308;47.438;-1.528;2023-04-10T02:10:12;13.30;81.20
64062;DHT22;50308;47.438;-1.528;2023-04-10T02:12:50;13.30;81.10
64062;DHT22;50308;47.438;-1.528;2023-04-10T02:15:22;13.30;81.00
64062;DHT22;50308;47.438;-1.528;2023-04-10T02:17:48;13.30;81.30
64062;DHT22;50308;47.438;-1.528;2023-04-10T02:20:15;13.30;81.20
64062;DHT22;50308;47.438;-1.528;2023-04-10T02:22:43;13.30;81.30
64062;DHT22;50308;47.438;-1.528;2023-04-10T02:25:09;13.30;81.10
64062;DHT22;50308;47.438;-1.528;2023-04-10T02:27:36;13.30;81.10
64062;DHT22;50308;47.438;-1.528;2023-04-10T02:30:03;13.30;81.40
64062;DHT22;50308;47.438;-1.528;2023-04-10T02:32:29;13.20;81.50
64062;DHT22;50308;47.438;-1.528;2023-04-10T02:34:56;13.20;81.30
64062;DHT22;50308;47.438;-1.528;2023-04-10T02:37:22;13.30;81.00
64062;DHT22;50308;47.438;-1.528;2023-04-10T02:39:48;13.40;80.90
64062;DHT22;50308;47.438;-1.528;2023-04-10T02:42:14;13.30;81.20
64062;DHT22;50308;47.438;-1.528;2023-04-10T02:44:41;13.40;81.00
64062;DHT22;50308;47.438;-1.528;2023-04-10T02:47:06;13.50;81.10
64062;DHT22;50308;47.438;-1.528;2023-04-10T02:49:33;13.50;80.90
64062;DHT22;50308;47.438;-1.528;2023-04-10T02:51:59;13.50;81.00
64062;DHT22;50308;47.438;-1.528;2023-04-10T02:54:25;13.40;81.10
64062;DHT22;50308;47.438;-1.528;2023-04-10T02:56:51;13.40;81.30
64062;DHT22;50308;47.438;-1.528;2023-04-10T02:59:17;13.40;81.00
64062;DHT22;50308;47.438;-1.528;2023-04-10T03:01:44;13.40;81.20
64062;DHT22;50308;47.438;-1.528;2023-04-10T03:04:10;13.40;81.20
64062;DHT22;50308;47.438;-1.528;2023-04-10T03:06:36;13.40;81.20
64062;DHT22;50308;47.438;-1.528;2023-04-10T03:09:02;13.30;81.20
64062;DHT22;50308;47.438;-1.528;2023-04-10T03:11:27;13.30;81.10
64062;DHT22;50308;47.438;-1.528;2023-04-10T03:13:53;13.30;81.30
64062;DHT22;50308;47.438;-1.528;2023-04-10T03:16:19;13.30;81.40
64062;DHT22;50308;47.438;-1.528;2023-04-10T03:18:45;13.30;81.20
64062;DHT22;50308;47.438;-1.528;2023-04-10T03:21:11;13.40;80.80
64062;DHT22;50308;47.438;-1.528;2023-04-10T03:23:37;13.40;80.80
64062;DHT22;50308;47.438;-1.528;2023-04-10T03:26:02;13.40;80.40
64062;DHT22;50308;47.438;-1.528;2023-04-10T03:28:29;13.30;80.60
64062;DHT22;50308;47.438;-1.528;2023-04-10T03:30:55;13.20;80.50
64062;DHT22;50308;47.438;-1.528;2023-04-10T03:33:21;13.20;80.70
64062;DHT22;50308;47.438;-1.528;2023-04-10T03:35:47;13.20;80.70
64062;DHT22;50308;47.438;-1.528;2023-04-10T03:38:13;13.20;80.80
64062;DHT22;50308;47.438;-1.528;2023-04-10T03:40:38;13.20;81.10
64062;DHT22;50308;47.438;-1.528;2023-04-10T03:43:04;13.10;81.10
64062;DHT22;50308;47.438;-1.528;2023-04-10T03:45:30;13.10;81.10
64062;DHT22;50308;47.438;-1.528;2023-04-10T03:47:57;13.10;80.90
64062;DHT22;50308;47.438;-1.528;2023-04-10T03:50:23;13.20;80.90
64062;DHT22;50308;47.438;-1.528;2023-04-10T03:52:50;13.10;80.90
64062;DHT22;50308;47.438;-1.528;2023-04-10T03:55:16;13.20;81.00
64062;DHT22;50308;47.438;-1.528;2023-04-10T03:57:46;13.10;81.10
64062;DHT22;50308;47.438;-1.528;2023-04-10T04:00:15;13.10;80.90
64062;DHT22;50308;47.438;-1.528;2023-04-10T04:02:41;13.20;80.90
64062;DHT22;50308;47.438;-1.528;2023-04-10T04:05:08;13.10;81.00
64062;DHT22;50308;47.438;-1.528;2023-04-10T04:07:34;13.10;81.20
64062;DHT22;50308;47.438;-1.528;2023-04-10T04:10:00;13.10;81.40
64062;DHT22;50308;47.438;-1.528;2023-04-10T04:12:26;13.10;81.40
64062;DHT22;50308;47.438;-1.528;2023-04-10T04:14:52;13.20;81.30
64062;DHT22;50308;47.438;-1.528;2023-04-10T04:17:17;13.30;81.50
64062;DHT22;50308;47.438;-1.528;2023-04-10T04:19:43;13.20;81.40
64062;DHT22;50308;47.438;-1.528;2023-04-10T04:22:10;13.20;81.80
64062;DHT22;50308;47.438;-1.528;2023-04-10T04:24:35;13.20;81.60
64062;DHT22;50308;47.438;-1.528;2023-04-10T04:27:01;13.20;81.60
64062;DHT22;50308;47.438;-1.528;2023-04-10T04:29:27;13.30;81.70
64062;DHT22;50308;47.438;-1.528;2023-04-10T04:31:53;13.30;81.60
64062;DHT22;50308;47.438;-1.528;2023-04-10T04:34:18;13.30;81.80
64062;DHT22;50308;47.438;-1.528;2023-04-10T04:36:44;13.30;81.60
64062;DHT22;50308;47.438;-1.528;2023-04-10T04:39:10;13.40;81.50
64062;DHT22;50308;47.438;-1.528;2023-04-10T04:41:35;13.40;81.90
64062;DHT22;50308;47.438;-1.528;2023-04-10T04:44:01;13.30;81.70
64062;DHT22;50308;47.438;-1.528;2023-04-10T04:46:27;13.40;82.00
64062;DHT22;50308;47.438;-1.528;2023-04-10T04:48:54;13.40;81.90
64062;DHT22;50308;47.438;-1.528;2023-04-10T04:51:19;13.40;82.30
64062;DHT22;50308;47.438;-1.528;2023-04-10T04:53:45;13.40;82.00
64062;DHT22;50308;47.438;-1.528;2023-04-10T04:56:11;13.30;82.60
64062;DHT22;50308;47.438;-1.528;2023-04-10T04:58:36;13.40;82.50
64062;DHT22;50308;47.438;-1.528;2023-04-10T05:01:02;13.40;82.70
64062;DHT22;50308;47.438;-1.528;2023-04-10T05:03:28;13.40;82.70
64062;DHT22;50308;47.438;-1.528;2023-04-10T05:05:54;13.40;82.50
64062;DHT22;50308;47.438;-1.528;2023-04-10T05:08:20;13.50;82.60
64062;DHT22;50308;47.438;-1.528;2023-04-10T05:10:46;13.60;82.50
64062;DHT22;50308;47.438;-1.528;2023-04-10T05:13:12;13.60;83.00
64062;DHT22;50308;47.438;-1.528;2023-04-10T05:15:38;13.60;83.20
64062;DHT22;50308;47.438;-1.528;2023-04-10T05:18:04;13.60;83.00
64062;DHT22;50308;47.438;-1.528;2023-04-10T05:20:30;13.60;83.20
64062;DHT22;50308;47.438;-1.528;2023-04-10T05:22:56;13.70;83.20
64062;DHT22;50308;47.438;-1.528;2023-04-10T05:25:22;13.70;84.30
64062;DHT22;50308;47.438;-1.528;2023-04-10T05:27:48;13.60;84.00
64062;DHT22;50308;47.438;-1.528;2023-04-10T05:30:14;13.70;84.40
64062;DHT22;50308;47.438;-1.528;2023-04-10T05:32:39;13.70;83.90
64062;DHT22;50308;47.438;-1.528;2023-04-10T05:35:06;13.70;84.40
64062;DHT22;50308;47.438;-1.528;2023-04-10T05:37:31;13.70;84.50
64062;DHT22;50308;47.438;-1.528;2023-04-10T05:39:58;13.70;84.30
64062;DHT22;50308;47.438;-1.528;2023-04-10T05:42:23;13.70;84.40
64062;DHT22;50308;47.438;-1.528;2023-04-10T05:44:50;13.80;84.40
64062;DHT22;50308;47.438;-1.528;2023-04-10T05:47:16;13.80;84.70
64062;DHT22;50308;47.438;-1.528;2023-04-10T05:49:41;13.80;84.40
64062;DHT22;50308;47.438;-1.528;2023-04-10T05:52:07;13.80;84.50
64062;DHT22;50308;47.438;-1.528;2023-04-10T05:54:33;13.80;85.10
64062;DHT22;50308;47.438;-1.528;2023-04-10T05:56:59;13.80;85.40
64062;DHT22;50308;47.438;-1.528;2023-04-10T05:59:26;13.90;85.50
64062;DHT22;50308;47.438;-1.528;2023-04-10T06:01:51;13.90;85.30
64062;DHT22;50308;47.438;-1.528;2023-04-10T06:04:17;13.90;87.00
64062;DHT22;50308;47.438;-1.528;2023-04-10T06:06:43;13.90;86.60
64062;DHT22;50308;47.438;-1.528;2023-04-10T06:09:08;13.90;86.20
64062;DHT22;50308;47.438;-1.528;2023-04-10T06:11:34;14.00;86.30
64062;DHT22;50308;47.438;-1.528;2023-04-10T06:14:00;13.90;87.40
64062;DHT22;50308;47.438;-1.528;2023-04-10T06:16:26;13.90;86.00
64062;DHT22;50308;47.438;-1.528;2023-04-10T06:18:52;14.00;86.70
64062;DHT22;50308;47.438;-1.528;2023-04-10T06:21:18;14.00;85.80
64062;DHT22;50308;47.438;-1.528;2023-04-10T06:23:44;14.00;85.60
64062;DHT22;50308;47.438;-1.528;2023-04-10T06:26:10;14.00;86.80
64062;DHT22;50308;47.438;-1.528;2023-04-10T06:28:36;14.00;87.00
64062;DHT22;50308;47.438;-1.528;2023-04-10T06:31:02;14.00;86.60
64062;DHT22;50308;47.438;-1.528;2023-04-10T06:33:28;14.00;87.50
64062;DHT22;50308;47.438;-1.528;2023-04-10T06:35:54;14.10;86.70
64062;DHT22;50308;47.438;-1.528;2023-04-10T06:38:20;14.10;86.50
64062;DHT22;50308;47.438;-1.528;2023-04-10T06:40:46;14.10;87.00
64062;DHT22;50308;47.438;-1.528;2023-04-10T06:43:11;14.00;85.60
64062;DHT22;50308;47.438;-1.528;2023-04-10T06:45:37;14.10;85.50
64062;DHT22;50308;47.438;-1.528;2023-04-10T06:48:03;14.10;85.50
64062;DHT22;50308;47.438;-1.528;2023-04-10T06:50:29;14.10;85.80
64062;DHT22;50308;47.438;-1.528;2023-04-10T06:52:55;14.10;84.40
64062;DHT22;50308;47.438;-1.528;2023-04-10T06:55:24;14.10;85.80
64062;DHT22;50308;47.438;-1.528;2023-04-10T06:57:50;14.10;83.90
64062;DHT22;50308;47.438;-1.528;2023-04-10T07:00:17;14.10;84.90
64062;DHT22;50308;47.438;-1.528;2023-04-10T07:02:43;14.10;84.50
64062;DHT22;50308;47.438;-1.528;2023-04-10T07:05:08;14.10;84.80
64062;DHT22;50308;47.438;-1.528;2023-04-10T07:07:34;14.10;83.00
64062;DHT22;50308;47.438;-1.528;2023-04-10T07:10:00;14.20;84.00
64062;DHT22;50308;47.438;-1.528;2023-04-10T07:12:26;14.20;83.50
64062;DHT22;50308;47.438;-1.528;2023-04-10T07:14:51;14.10;82.80
64062;DHT22;50308;47.438;-1.528;2023-04-10T07:17:17;14.10;83.10
64062;DHT22;50308;47.438;-1.528;2023-04-10T07:19:43;14.20;82.60
64062;DHT22;50308;47.438;-1.528;2023-04-10T07:22:08;14.20;82.70
64062;DHT22;50308;47.438;-1.528;2023-04-10T07:24:34;14.20;82.60
64062;DHT22;50308;47.438;-1.528;2023-04-10T07:27:00;14.20;81.30
64062;DHT22;50308;47.438;-1.528;2023-04-10T07:29:26;14.20;82.30
64062;DHT22;50308;47.438;-1.528;2023-04-10T07:31:51;14.20;81.80
64062;DHT22;50308;47.438;-1.528;2023-04-10T07:34:17;14.20;80.70
64062;DHT22;50308;47.438;-1.528;2023-04-10T07:36:43;14.20;80.60
64062;DHT22;50308;47.438;-1.528;2023-04-10T07:39:08;14.20;80.40
64062;DHT22;50308;47.438;-1.528;2023-04-10T07:41:34;14.20;80.20
64062;DHT22;50308;47.438;-1.528;2023-04-10T07:44:00;14.20;80.50
64062;DHT22;50308;47.438;-1.528;2023-04-10T07:46:26;14.30;81.10
64062;DHT22;50308;47.438;-1.528;2023-04-10T07:48:52;14.30;79.80
64062;DHT22;50308;47.438;-1.528;2023-04-10T07:51:19;14.30;80.00
64062;DHT22;50308;47.438;-1.528;2023-04-10T07:53:45;14.30;80.10
64062;DHT22;50308;47.438;-1.528;2023-04-10T07:56:15;14.30;79.80
64062;DHT22;50308;47.438;-1.528;2023-04-10T07:58:41;14.30;79.80
64062;DHT22;50308;47.438;-1.528;2023-04-10T08:01:07;14.30;80.60
64062;DHT22;50308;47.438;-1.528;2023-04-10T08:03:39;14.30;80.10
64062;DHT22;50308;47.438;-1.528;2023-04-10T08:06:06;14.30;79.90
64062;DHT22;50308;47.438;-1.528;2023-04-10T08:08:38;14.30;80.10
64062;DHT22;50308;47.438;-1.528;2023-04-10T08:11:07;14.30;80.40
64062;DHT22;50308;47.438;-1.528;2023-04-10T08:13:46;14.40;80.30
64062;DHT22;50308;47.438;-1.528;2023-04-10T08:16:12;14.40;80.10
64062;DHT22;50308;47.438;-1.528;2023-04-10T08:18:37;14.40;80.30
64062;DHT22;50308;47.438;-1.528;2023-04-10T08:21:03;14.40;80.40
64062;DHT22;50308;47.438;-1.528;2023-04-10T08:23:29;14.30;80.10
64062;DHT22;50308;47.438;-1.528;2023-04-10T08:25:54;14.40;80.20
64062;DHT22;50308;47.438;-1.528;2023-04-10T08:28:20;14.40;80.30
64062;DHT22;50308;47.438;-1.528;2023-04-10T08:30:46;14.40;80.70
64062;DHT22;50308;47.438;-1.528;2023-04-10T08:33:12;14.40;80.30
64062;DHT22;50308;47.438;-1.528;2023-04-10T08:35:37;14.40;80.20
64062;DHT22;50308;47.438;-1.528;2023-04-10T08:38:03;14.40;80.10
64062;DHT22;50308;47.438;-1.528;2023-04-10T08:40:29;14.40;80.10
64062;DHT22;50308;47.438;-1.528;2023-04-10T08:42:54;14.40;80.20
64062;DHT22;50308;47.438;-1.528;2023-04-10T08:45:20;14.40;80.00
64062;DHT22;50308;47.438;-1.528;2023-04-10T08:47:47;14.40;80.10
64062;DHT22;50308;47.438;-1.528;2023-04-10T08:50:16;14.40;80.20
64062;DHT22;50308;47.438;-1.528;2023-04-10T08:52:43;14.50;80.60
64062;DHT22;50308;47.438;-1.528;2023-04-10T08:55:11;14.40;80.30
64062;DHT22;50308;47.438;-1.528;2023-04-10T08:57:39;14.40;80.30
64062;DHT22;50308;47.438;-1.528;2023-04-10T09:00:05;14.50;80.80
64062;DHT22;50308;47.438;-1.528;2023-04-10T09:02:31;14.50;81.20
64062;DHT22;50308;47.438;-1.528;2023-04-10T09:04:59;14.50;80.30
64062;DHT22;50308;47.438;-1.528;2023-04-10T09:07:28;14.50;80.40
64062;DHT22;50308;47.438;-1.528;2023-04-10T09:09:55;14.50;80.50
64062;DHT22;50308;47.438;-1.528;2023-04-10T09:12:20;14.50;80.60
64062;DHT22;50308;47.438;-1.528;2023-04-10T09:14:46;14.50;80.50
64062;DHT22;50308;47.438;-1.528;2023-04-10T09:17:19;14.50;80.80
64062;DHT22;50308;47.438;-1.528;2023-04-10T09:19:47;14.50;81.10
64062;DHT22;50308;47.438;-1.528;2023-04-10T09:22:13;14.50;80.50
64062;DHT22;50308;47.438;-1.528;2023-04-10T09:24:41;14.50;80.60
64062;DHT22;50308;47.438;-1.528;2023-04-10T09:27:07;14.50;81.00
64062;DHT22;50308;47.438;-1.528;2023-04-10T09:29:45;14.60;81.00
64062;DHT22;50308;47.438;-1.528;2023-04-10T09:32:35;14.50;80.70
64062;DHT22;50308;47.438;-1.528;2023-04-10T09:35:01;14.50;80.70
64062;DHT22;50308;47.438;-1.528;2023-04-10T09:37:33;14.60;80.70
64062;DHT22;50308;47.438;-1.528;2023-04-10T09:39:59;14.60;80.70
64062;DHT22;50308;47.438;-1.528;2023-04-10T09:42:35;14.60;80.80
64062;DHT22;50308;47.438;-1.528;2023-04-10T09:45:02;14.50;80.90
64062;DHT22;50308;47.438;-1.528;2023-04-10T09:47:29;14.60;81.20
64062;DHT22;50308;47.438;-1.528;2023-04-10T09:49:57;14.60;81.70
64062;DHT22;50308;47.438;-1.528;2023-04-10T09:52:27;14.60;82.70
64062;DHT22;50308;47.438;-1.528;2023-04-10T09:54:54;14.60;81.50
64062;DHT22;50308;47.438;-1.528;2023-04-10T09:57:22;14.60;81.30
64062;DHT22;50308;47.438;-1.528;2023-04-10T09:59:53;14.60;82.60
64062;DHT22;50308;47.438;-1.528;2023-04-10T10:02:24;14.60;82.20
64062;DHT22;50308;47.438;-1.528;2023-04-10T10:04:51;14.60;82.60
64062;DHT22;50308;47.438;-1.528;2023-04-10T10:07:18;14.60;81.80
64062;DHT22;50308;47.438;-1.528;2023-04-10T10:09:46;14.60;81.90
64062;DHT22;50308;47.438;-1.528;2023-04-10T10:12:15;14.60;81.60
64062;DHT22;50308;47.438;-1.528;2023-04-10T10:17:17;14.70;81.70
64062;DHT22;50308;47.438;-1.528;2023-04-10T10:19:54;14.70;81.60
64062;DHT22;50308;47.438;-1.528;2023-04-10T10:22:24;14.70;81.60
64062;DHT22;50308;47.438;-1.528;2023-04-10T10:24:50;14.70;82.00
64062;DHT22;50308;47.438;-1.528;2023-04-10T10:27:21;14.70;81.40
64062;DHT22;50308;47.438;-1.528;2023-04-10T10:29:48;14.70;82.70
64062;DHT22;50308;47.438;-1.528;2023-04-10T10:32:16;14.70;81.60
64062;DHT22;50308;47.438;-1.528;2023-04-10T10:34:43;14.70;83.00
64062;DHT22;50308;47.438;-1.528;2023-04-10T10:37:11;14.70;83.00
64062;DHT22;50308;47.438;-1.528;2023-04-10T10:39:56;14.70;82.60
64062;DHT22;50308;47.438;-1.528;2023-04-10T10:42:45;14.70;82.90
64062;DHT22;50308;47.438;-1.528;2023-04-10T10:45:18;14.70;81.90
64062;DHT22;50308;47.438;-1.528;2023-04-10T10:47:53;14.70;82.90
64062;DHT22;50308;47.438;-1.528;2023-04-10T10:50:19;14.70;82.30
64062;DHT22;50308;47.438;-1.528;2023-04-10T10:52:54;14.80;82.20
64062;DHT22;50308;47.438;-1.528;2023-04-10T10:57:56;14.70;84.10
64062;DHT22;50308;47.438;-1.528;2023-04-10T11:00:26;14.70;82.30
64062;DHT22;50308;47.438;-1.528;2023-04-10T11:05:52;14.80;82.20
64062;DHT22;50308;47.438;-1.528;2023-04-10T11:08:40;14.70;81.70
64062;DHT22;50308;47.438;-1.528;2023-04-10T11:11:13;14.70;82.90
64062;DHT22;50308;47.438;-1.528;2023-04-10T11:16:16;14.70;81.60
64062;DHT22;50308;47.438;-1.528;2023-04-10T11:21:20;14.70;82.10
64062;DHT22;50308;47.438;-1.528;2023-04-10T11:29:00;14.80;81.90
64062;DHT22;50308;47.438;-1.528;2023-04-10T11:31:26;14.80;83.00
64062;DHT22;50308;47.438;-1.528;2023-04-10T11:34:01;14.80;82.50
64062;DHT22;50308;47.438;-1.528;2023-04-10T11:36:28;14.80;82.90
64062;DHT22;50308;47.438;-1.528;2023-04-10T11:38:55;14.80;82.90
64062;DHT22;50308;47.438;-1.528;2023-04-10T11:41:25;14.80;82.60
64062;DHT22;50308;47.438;-1.528;2023-04-10T11:43:52;14.80;82.50
64062;DHT22;50308;47.438;-1.528;2023-04-10T11:46:17;14.80;82.70
64062;DHT22;50308;47.438;-1.528;2023-04-10T11:48:44;14.80;82.50
64062;DHT22;50308;47.438;-1.528;2023-04-10T11:51:12;14.80;82.40
64062;DHT22;50308;47.438;-1.528;2023-04-10T11:53:39;14.80;82.90
64062;DHT22;50308;47.438;-1.528;2023-04-10T11:56:13;14.80;83.30
64062;DHT22;50308;47.438;-1.528;2023-04-10T11:58:39;14.80;82.40
64062;DHT22;50308;47.438;-1.528;2023-04-10T12:01:04;14.80;83.60
64062;DHT22;50308;47.438;-1.528;2023-04-10T12:03:35;14.80;82.90
64062;DHT22;50308;47.438;-1.528;2023-04-10T12:06:02;14.80;83.30
64062;DHT22;50308;47.438;-1.528;2023-04-10T12:08:39;14.80;83.40
64062;DHT22;50308;47.438;-1.528;2023-04-10T12:11:07;14.80;83.40
64062;DHT22;50308;47.438;-1.528;2023-04-10T12:13:33;14.80;83.10
64062;DHT22;50308;47.438;-1.528;2023-04-10T12:16:09;14.90;83.60
64062;DHT22;50308;47.438;-1.528;2023-04-10T12:18:35;14.90;85.20
64062;DHT22;50308;47.438;-1.528;2023-04-10T12:21:01;14.90;84.00
64062;DHT22;50308;47.438;-1.528;2023-04-10T12:23:29;14.90;85.60
64062;DHT22;50308;47.438;-1.528;2023-04-10T12:26:14;14.90;84.00
64062;DHT22;50308;47.438;-1.528;2023-04-10T12:28:49;14.90;86.10
64062;DHT22;50308;47.438;-1.528;2023-04-10T12:31:15;14.90;84.20
64062;DHT22;50308;47.438;-1.528;2023-04-10T12:33:45;14.90;84.80
64062;DHT22;50308;47.438;-1.528;2023-04-10T12:36:21;14.90;84.80
64062;DHT22;50308;47.438;-1.528;2023-04-10T12:38:48;14.90;85.50
64062;DHT22;50308;47.438;-1.528;2023-04-10T12:41:24;14.90;86.60
64062;DHT22;50308;47.438;-1.528;2023-04-10T12:43:51;15.00;85.40
64062;DHT22;50308;47.438;-1.528;2023-04-10T12:46:28;14.90;87.20
64062;DHT22;50308;47.438;-1.528;2023-04-10T12:48:54;14.90;86.90
64062;DHT22;50308;47.438;-1.528;2023-04-10T12:51:47;14.90;86.00
64062;DHT22;50308;47.438;-1.528;2023-04-10T12:54:29;14.90;85.00
64062;DHT22;50308;47.438;-1.528;2023-04-10T12:56:54;14.90;86.00
64062;DHT22;50308;47.438;-1.528;2023-04-10T12:59:20;15.00;85.60
64062;DHT22;50308;47.438;-1.528;2023-04-10T13:01:46;14.90;85.00
64062;DHT22;50308;47.438;-1.528;2023-04-10T13:04:12;14.90;86.50
64062;DHT22;50308;47.438;-1.528;2023-04-10T13:06:45;15.00;87.20
64062;DHT22;50308;47.438;-1.528;2023-04-10T13:09:12;15.00;87.80
64062;DHT22;50308;47.438;-1.528;2023-04-10T13:11:39;15.00;87.30
64062;DHT22;50308;47.438;-1.528;2023-04-10T13:14:05;15.00;85.60
64062;DHT22;50308;47.438;-1.528;2023-04-10T13:16:30;15.00;85.80
64062;DHT22;50308;47.438;-1.528;2023-04-10T13:18:56;15.00;86.90
64062;DHT22;50308;47.438;-1.528;2023-04-10T13:21:22;15.00;86.60
64062;DHT22;50308;47.438;-1.528;2023-04-10T13:23:51;15.00;85.90
64062;DHT22;50308;47.438;-1.528;2023-04-10T13:26:16;15.00;84.90
64062;DHT22;50308;47.438;-1.528;2023-04-10T13:28:42;15.00;85.60
64062;DHT22;50308;47.438;-1.528;2023-04-10T13:31:08;15.00;86.40
64062;DHT22;50308;47.438;-1.528;2023-04-10T13:33:34;15.00;86.40
64062;DHT22;50308;47.438;-1.528;2023-04-10T13:36:00;15.00;86.20
64062;DHT22;50308;47.438;-1.528;2023-04-10T13:38:26;15.00;86.20
64062;DHT22;50308;47.438;-1.528;2023-04-10T13:40:52;15.00;85.10
64062;DHT22;50308;47.438;-1.528;2023-04-10T13:43:18;15.00;85.00
64062;DHT22;50308;47.438;-1.528;2023-04-10T13:45:44;15.10;85.90
64062;DHT22;50308;47.438;-1.528;2023-04-10T13:48:10;15.10;87.50
64062;DHT22;50308;47.438;-1.528;2023-04-10T13:50:35;15.10;86.50
64062;DHT22;50308;47.438;-1.528;2023-04-10T13:53:01;15.10;86.50
64062;DHT22;50308;47.438;-1.528;2023-04-10T13:55:27;15.10;87.70
64062;DHT22;50308;47.438;-1.528;2023-04-10T13:57:53;15.10;86.20
64062;DHT22;50308;47.438;-1.528;2023-04-10T14:00:18;15.10;88.10
64062;DHT22;50308;47.438;-1.528;2023-04-10T14:02:44;15.10;86.70
64062;DHT22;50308;47.438;-1.528;2023-04-10T14:05:10;15.20;88.20
64062;DHT22;50308;47.438;-1.528;2023-04-10T14:07:36;15.20;87.30
64062;DHT22;50308;47.438;-1.528;2023-04-10T14:10:02;15.20;87.90
64062;DHT22;50308;47.438;-1.528;2023-04-10T14:12:28;15.20;86.50
64062;DHT22;50308;47.438;-1.528;2023-04-10T14:14:53;15.20;86.70
64062;DHT22;50308;47.438;-1.528;2023-04-10T14:17:21;15.20;87.50
64062;DHT22;50308;47.438;-1.528;2023-04-10T14:19:46;15.20;88.90
64062;DHT22;50308;47.438;-1.528;2023-04-10T14:22:16;15.20;88.20
64062;DHT22;50308;47.438;-1.528;2023-04-10T14:24:41;15.20;87.40
64062;DHT22;50308;47.438;-1.528;2023-04-10T14:27:07;15.20;88.00
64062;DHT22;50308;47.438;-1.528;2023-04-10T14:29:33;15.20;88.40
64062;DHT22;50308;47.438;-1.528;2023-04-10T14:31:59;15.20;87.00
64062;DHT22;50308;47.438;-1.528;2023-04-10T14:34:24;15.20;86.70
64062;DHT22;50308;47.438;-1.528;2023-04-10T14:36:50;15.20;87.40
64062;DHT22;50308;47.438;-1.528;2023-04-10T14:39:23;15.20;88.70
64062;DHT22;50308;47.438;-1.528;2023-04-10T14:41:49;15.20;86.90
64062;DHT22;50308;47.438;-1.528;2023-04-10T14:44:16;15.20;87.70
64062;DHT22;50308;47.438;-1.528;2023-04-10T14:46:41;15.20;87.30
64062;DHT22;50308;47.438;-1.528;2023-04-10T14:49:07;15.20;86.70
64062;DHT22;50308;47.438;-1.528;2023-04-10T14:51:33;15.20;86.10
64062;DHT22;50308;47.438;-1.528;2023-04-10T14:53:59;15.20;87.00
64062;DHT22;50308;47.438;-1.528;2023-04-10T14:56:24;15.20;87.90
64062;DHT22;50308;47.438;-1.528;2023-04-10T14:58:50;15.20;86.60
64062;DHT22;50308;47.438;-1.528;2023-04-10T15:01:16;15.20;87.40
64062;DHT22;50308;47.438;-1.528;2023-04-10T15:03:44;15.20;86.80
64062;DHT22;50308;47.438;-1.528;2023-04-10T15:06:10;15.20;86.50
64062;DHT22;50308;47.438;-1.528;2023-04-10T15:08:36;15.20;87.70
64062;DHT22;50308;47.438;-1.528;2023-04-10T15:11:02;15.20;85.60
64062;DHT22;50308;47.438;-1.528;2023-04-10T15:13:29;15.20;86.80
64062;DHT22;50308;47.438;-1.528;2023-04-10T15:15:55;15.20;86.20
64062;DHT22;50308;47.438;-1.528;2023-04-10T15:18:21;15.20;87.40
64062;DHT22;50308;47.438;-1.528;2023-04-10T15:20:47;15.20;86.60
64062;DHT22;50308;47.438;-1.528;2023-04-10T15:23:13;15.30;87.00
64062;DHT22;50308;47.438;-1.528;2023-04-10T15:25:38;15.30;86.80
64062;DHT22;50308;47.438;-1.528;2023-04-10T15:28:04;15.40;87.60
64062;DHT22;50308;47.438;-1.528;2023-04-10T15:30:32;15.40;87.20
64062;DHT22;50308;47.438;-1.528;2023-04-10T15:32:58;15.40;87.00
64062;DHT22;50308;47.438;-1.528;2023-04-10T15:35:23;15.40;86.30
64062;DHT22;50308;47.438;-1.528;2023-04-10T15:37:51;15.40;86.20
64062;DHT22;50308;47.438;-1.528;2023-04-10T15:40:17;15.40;86.20
64062;DHT22;50308;47.438;-1.528;2023-04-10T15:42:42;15.40;86.30
64062;DHT22;50308;47.438;-1.528;2023-04-10T15:45:08;15.40;86.00
64062;DHT22;50308;47.438;-1.528;2023-04-10T15:47:34;15.40;86.10
64062;DHT22;50308;47.438;-1.528;2023-04-10T15:50:00;15.40;85.90